Weather at Durham (Memorial Hospital) Heliport

Public forecast

Using degrees Celsius for public forecast. Weather courtesy of forecast.io.

Closest aviation weather report (METAR) to Durham (Memorial Hospital) Heliport

Closest report is Wiarton Airport, 35.8 nm (66.2 km) NNW. Retrieved 2020/09/25 03:00 UTC (12 minutes ago):

CYVV 250300Z 04005KT 010V080 8SM SCT006 BKN100 14/14 A2998 RMK SF3AC4 SLP155 DENSITY ALT 800FT

Closest aviation forecast (TAF) to Durham (Memorial Hospital) Heliport

Forecast is more than 6 hours old.

Closest forecast is Wiarton Airport, 35.8 nm (66.2 km) NNW. Retrieved 2020/09/24 20:00 UTC (7 hours ago):

TAF CYVV 241939Z 2420/2423 06005KT P6SM SCT030 BKN100 TEMPO 2420/2423 P6SM -SHRA BKN030 OVC100 PROB30 2420/2423 VRB15G25KT 2SM TSRA BR BKN020 OVC040CB RMK NXT FCST WILL BE ISSUED AT 251045Z